createdAt,value
2022-11-15T00:00:32.744Z,1001.57
2022-11-15T00:01:32.677Z,1001.58
2022-11-15T00:02:32.701Z,1001.57
2022-11-15T00:03:32.929Z,1001.60
2022-11-15T00:04:32.771Z,1001.60
2022-11-15T00:05:32.668Z,1001.61
2022-11-15T00:06:32.625Z,1001.65
2022-11-15T00:07:54.536Z,1001.67
2022-11-15T00:08:33.583Z,1001.63
2022-11-15T00:09:32.587Z,1001.67
2022-11-15T00:10:32.608Z,1001.71
2022-11-15T00:11:32.563Z,1001.66
2022-11-15T00:12:32.575Z,1001.68
2022-11-15T00:13:33.049Z,1001.63
2022-11-15T00:14:32.521Z,1001.61
2022-11-15T00:15:32.534Z,1001.62
2022-11-15T00:16:32.505Z,1001.68
2022-11-15T00:17:32.540Z,1001.65
2022-11-15T00:18:32.531Z,1001.66
2022-11-15T00:19:32.520Z,1001.63
2022-11-15T00:20:32.466Z,1001.58
2022-11-15T00:21:32.465Z,1001.62
2022-11-15T00:22:32.451Z,1001.67
2022-11-15T00:23:32.757Z,1001.63
2022-11-15T00:24:32.414Z,1001.63
2022-11-15T00:25:36.341Z,1001.59
2022-11-15T00:26:32.394Z,1001.58
2022-11-15T00:27:32.406Z,1001.54
2022-11-15T00:28:32.374Z,1001.60
2022-11-15T00:29:32.364Z,1001.52
2022-11-15T00:30:32.385Z,1001.50
2022-11-15T00:31:32.369Z,1001.54
2022-11-15T00:32:32.401Z,1001.55
2022-11-15T00:33:32.818Z,1001.56
2022-11-15T00:34:32.313Z,1001.49
2022-11-15T00:35:32.591Z,1001.48
2022-11-15T00:36:32.267Z,1001.56
2022-11-15T00:37:32.353Z,1001.57
2022-11-15T00:38:32.252Z,1001.55
2022-11-15T00:39:32.239Z,1001.55
2022-11-15T00:40:32.291Z,1001.53
2022-11-15T00:41:32.261Z,1001.50
2022-11-15T00:42:32.222Z,1001.51
2022-11-15T00:43:32.642Z,1001.54
2022-11-15T00:44:37.064Z,1001.39
2022-11-15T00:45:32.194Z,1001.45
2022-11-15T00:46:35.982Z,1001.43
2022-11-15T00:47:32.192Z,1001.44
2022-11-15T00:48:32.180Z,1001.41
2022-11-15T00:49:32.150Z,1001.35
2022-11-15T00:50:32.192Z,1001.40
2022-11-15T00:51:32.162Z,1001.36
2022-11-15T00:52:32.244Z,1001.40
2022-11-15T00:53:32.716Z,1001.36
2022-11-15T00:54:32.178Z,1001.35
2022-11-15T00:55:32.106Z,1001.37
2022-11-15T00:56:32.078Z,1001.32
2022-11-15T00:57:32.070Z,1001.36
2022-11-15T00:58:32.071Z,1001.33
2022-11-15T00:59:32.172Z,1001.34
2022-11-15T01:00:32.201Z,1001.34
2022-11-15T01:01:32.154Z,1001.31
2022-11-15T01:02:32.020Z,1001.31
2022-11-15T01:03:32.362Z,1001.30
2022-11-15T01:04:32.019Z,1001.31
2022-11-15T01:05:32.065Z,1001.24
2022-11-15T01:06:32.166Z,1001.25
2022-11-15T01:07:32.003Z,1001.20
2022-11-15T01:08:31.995Z,1001.20
2022-11-15T01:09:32.012Z,1001.17
2022-11-15T01:10:31.960Z,1001.14
2022-11-15T01:11:32.011Z,1001.15
2022-11-15T01:12:31.901Z,1001.15
2022-11-15T01:13:32.256Z,1001.14
2022-11-15T01:14:31.935Z,1001.14
2022-11-15T01:15:31.902Z,1001.19
2022-11-15T01:16:31.856Z,1001.16
2022-11-15T01:17:31.914Z,1001.17
2022-11-15T01:18:31.832Z,1001.13
2022-11-15T01:19:31.890Z,1001.07
2022-11-15T01:20:31.844Z,1001.15
2022-11-15T01:21:31.962Z,1001.12
2022-11-15T01:22:31.832Z,1001.01
2022-11-15T01:23:32.130Z,1000.97
2022-11-15T01:24:31.795Z,1000.95
2022-11-15T01:31:19.998Z,1000.99
2022-11-15T01:32:20.122Z,1000.92
2022-11-15T01:32:58.414Z,1000.96
2022-11-15T01:34:10.782Z,1000.90
2022-11-15T01:35:24.660Z,1000.92
2022-11-15T01:45:40.317Z,1000.79
2022-11-15T01:46:27.043Z,1000.78
2022-11-15T01:47:21.636Z,1000.82
2022-11-15T01:48:39.127Z,1000.79
2022-11-15T01:49:22.525Z,1000.80
2022-11-15T02:49:57.614Z,1000.49
2022-11-15T02:55:54.385Z,1000.49
2022-11-15T03:00:22.987Z,1000.40
2022-11-15T03:00:39.023Z,1000.42
2022-11-15T03:01:41.234Z,1000.39
2022-11-15T03:02:38.780Z,1000.38
2022-11-15T03:14:10.308Z,1000.39
2022-11-15T03:15:09.140Z,1000.33
2022-11-15T03:15:46.845Z,1000.30
2022-11-15T03:16:47.188Z,1000.31
2022-11-15T03:17:47.674Z,1000.36
2022-11-15T03:18:47.027Z,1000.38
2022-11-15T03:19:46.784Z,1000.32
2022-11-15T03:20:49.878Z,1000.33
2022-11-15T03:21:59.188Z,1000.37
2022-11-15T03:22:47.225Z,1000.34
2022-11-15T03:23:46.766Z,1000.31
2022-11-15T03:24:47.716Z,1000.30
2022-11-15T03:25:46.816Z,1000.32
2022-11-15T03:26:49.458Z,1000.30
2022-11-15T03:27:47.751Z,1000.35
2022-11-15T03:28:46.761Z,1000.35
2022-11-15T03:29:46.665Z,1000.37
2022-11-15T03:31:05.167Z,1000.29
2022-11-15T03:31:50.574Z,1000.36
2022-11-15T03:32:47.082Z,1000.33
2022-11-15T03:33:47.184Z,1000.35
2022-11-15T03:34:46.878Z,1000.38
2022-11-15T03:35:49.675Z,1000.35
2022-11-15T03:36:47.418Z,1000.33
2022-11-15T03:37:47.969Z,1000.33
2022-11-15T03:38:48.726Z,1000.38
2022-11-15T03:39:46.875Z,1000.37
2022-11-15T03:40:48.673Z,1000.37
2022-11-15T03:42:11.651Z,1000.37
2022-11-15T03:42:47.396Z,1000.40
2022-11-15T03:43:47.728Z,1000.36
2022-11-15T03:44:47.149Z,1000.38
2022-11-15T03:45:46.657Z,1000.39
2022-11-15T03:46:50.160Z,1000.40
2022-11-15T03:47:46.724Z,1000.44
2022-11-15T03:48:47.321Z,1000.44
2022-11-15T03:49:46.652Z,1000.44
2022-11-15T03:50:46.633Z,1000.44
2022-11-15T03:51:47.028Z,1000.46
2022-11-15T03:52:46.349Z,1000.43
2022-11-15T03:53:46.703Z,1000.45
2022-11-15T03:54:47.641Z,1000.46
2022-11-15T03:55:46.362Z,1000.45
2022-11-15T03:56:47.552Z,1000.45
2022-11-15T03:57:47.314Z,1000.38
2022-11-15T03:58:46.285Z,1000.43
2022-11-15T03:59:46.320Z,1000.41
2022-11-15T04:00:46.892Z,1000.44
2022-11-15T04:01:46.515Z,1000.46
2022-11-15T04:02:55.081Z,1000.44
2022-11-15T04:03:46.789Z,1000.44
2022-11-15T04:04:46.403Z,1000.46
2022-11-15T04:05:46.162Z,1000.46
2022-11-15T04:06:46.741Z,1000.47
2022-11-15T04:07:46.204Z,1000.42
2022-11-15T04:08:46.212Z,1000.41
2022-11-15T04:09:46.303Z,1000.42
2022-11-15T04:10:47.498Z,1000.42
2022-11-15T04:11:48.366Z,1000.42
2022-11-15T04:12:46.332Z,1000.40
2022-11-15T04:14:07.255Z,1000.43
2022-11-15T04:14:47.771Z,1000.46
2022-11-15T04:15:46.821Z,1000.42
2022-11-15T04:16:46.977Z,1000.42
2022-11-15T04:17:47.144Z,1000.45
2022-11-15T04:18:46.626Z,1000.46
2022-11-15T04:19:46.209Z,1000.49
2022-11-15T04:20:46.211Z,1000.45
2022-11-15T04:21:46.388Z,1000.45
2022-11-15T04:22:46.092Z,1000.46
2022-11-15T04:23:46.053Z,1000.42
2022-11-15T04:24:46.045Z,1000.43
2022-11-15T04:25:50.437Z,1000.42
2022-11-15T04:26:49.168Z,1000.41
2022-11-15T04:27:57.730Z,1000.41
2022-11-15T04:28:46.014Z,1000.43
2022-11-15T04:30:07.458Z,1000.36
2022-11-15T04:30:47.206Z,1000.40
2022-11-15T04:31:48.307Z,1000.40
2022-11-15T04:32:48.594Z,1000.38
2022-11-15T04:33:47.703Z,1000.34
2022-11-15T04:35:07.546Z,1000.36
2022-11-15T04:35:58.234Z,1000.39
2022-11-15T04:36:50.847Z,1000.43
2022-11-15T04:37:55.814Z,1000.39
2022-11-15T05:01:37.609Z,1000.43
2022-11-15T05:19:40.157Z,1000.43
2022-11-15T05:27:13.925Z,1000.44
2022-11-15T05:28:08.345Z,1000.39
2022-11-15T05:29:06.906Z,1000.43
2022-11-15T05:30:06.886Z,1000.40
2022-11-15T05:31:06.876Z,1000.37
2022-11-15T05:32:06.852Z,1000.41
2022-11-15T05:33:06.875Z,1000.36
2022-11-15T05:34:06.825Z,1000.34
2022-11-15T05:35:06.816Z,1000.34
2022-11-15T05:36:06.812Z,1000.33
2022-11-15T05:37:06.800Z,1000.33
2022-11-15T05:38:06.784Z,1000.39
2022-11-15T05:39:08.915Z,1000.31
2022-11-15T05:40:06.761Z,1000.35
2022-11-15T05:41:06.751Z,1000.31
2022-11-15T05:42:06.738Z,1000.32
2022-11-15T05:43:06.735Z,1000.34
2022-11-15T05:44:06.717Z,1000.36
2022-11-15T05:45:06.724Z,1000.39
2022-11-15T05:46:06.704Z,1000.38
2022-11-15T05:47:06.715Z,1000.39
2022-11-15T05:48:06.676Z,1000.37
2022-11-15T05:49:06.666Z,1000.39
2022-11-15T05:50:06.678Z,1000.38
2022-11-15T05:51:06.644Z,1000.39
2022-11-15T05:52:06.631Z,1000.34
2022-11-15T05:53:06.627Z,1000.38
2022-11-15T05:54:06.632Z,1000.38
2022-11-15T05:55:06.603Z,1000.34
2022-11-15T05:56:06.598Z,1000.40
2022-11-15T05:57:06.601Z,1000.38
2022-11-15T05:58:06.583Z,1000.35
2022-11-15T05:59:06.577Z,1000.36
2022-11-15T06:00:06.548Z,1000.36
2022-11-15T06:01:06.529Z,1000.36
2022-11-15T06:02:06.629Z,1000.37
2022-11-15T06:03:06.517Z,1000.35
2022-11-15T06:04:06.608Z,1000.37
2022-11-15T06:05:06.502Z,1000.33
2022-11-15T06:06:06.487Z,1000.35
2022-11-15T06:07:06.503Z,1000.32
2022-11-15T06:08:06.469Z,1000.29
2022-11-15T06:09:06.476Z,1000.30
2022-11-15T06:10:06.445Z,1000.30
2022-11-15T06:11:06.456Z,1000.31
2022-11-15T06:12:06.424Z,1000.29
2022-11-15T06:13:06.410Z,1000.30
2022-11-15T06:14:06.410Z,1000.28
2022-11-15T06:15:06.383Z,1000.29
2022-11-15T06:16:06.381Z,1000.25
2022-11-15T06:17:11.113Z,1000.26
2022-11-15T06:18:07.364Z,1000.28
2022-11-15T06:19:06.390Z,1000.32
2022-11-15T06:20:06.338Z,1000.23
2022-11-15T06:21:06.333Z,1000.27
2022-11-15T06:22:06.308Z,1000.30
2022-11-15T06:23:06.311Z,1000.29
2022-11-15T06:24:06.309Z,1000.31
2022-11-15T06:25:06.281Z,1000.32
2022-11-15T06:26:06.296Z,1000.35
2022-11-15T06:27:06.264Z,1000.35
2022-11-15T06:28:06.280Z,1000.35
2022-11-15T06:29:06.367Z,1000.38
2022-11-15T06:30:06.259Z,1000.35
2022-11-15T06:31:06.235Z,1000.36
2022-11-15T06:32:06.199Z,1000.32
2022-11-15T06:33:06.196Z,1000.34
2022-11-15T06:34:06.182Z,1000.36
2022-11-15T06:35:06.497Z,1000.35
2022-11-15T06:36:06.191Z,1000.31
2022-11-15T06:37:06.161Z,1000.35
2022-11-15T06:38:06.152Z,1000.36
2022-11-15T06:39:06.133Z,1000.41
2022-11-15T06:40:06.108Z,1000.38
2022-11-15T06:41:06.106Z,1000.38
2022-11-15T06:42:06.091Z,1000.42
2022-11-15T06:43:06.087Z,1000.43
2022-11-15T06:44:06.079Z,1000.42
2022-11-15T06:45:06.069Z,1000.42
2022-11-15T06:46:06.060Z,1000.38
2022-11-15T06:47:06.038Z,1000.40
2022-11-15T06:48:06.028Z,1000.41
2022-11-15T06:49:09.621Z,1000.39
2022-11-15T06:50:06.016Z,1000.45
2022-11-15T06:51:06.025Z,1000.41
2022-11-15T06:52:05.993Z,1000.41
2022-11-15T06:53:05.985Z,1000.44
2022-11-15T06:54:05.997Z,1000.45
2022-11-15T06:55:05.966Z,1000.44
2022-11-15T06:56:05.942Z,1000.42
2022-11-15T06:57:05.928Z,1000.41
2022-11-15T06:58:05.941Z,1000.40
2022-11-15T06:59:05.909Z,1000.40
2022-11-15T07:00:05.912Z,1000.41
2022-11-15T07:01:05.957Z,1000.42
2022-11-15T07:02:05.878Z,1000.41
2022-11-15T07:03:05.875Z,1000.36
2022-11-15T07:04:05.861Z,1000.39
2022-11-15T07:05:05.862Z,1000.39
2022-11-15T07:06:07.760Z,1000.42
2022-11-15T07:07:05.895Z,1000.42
2022-11-15T07:08:05.840Z,1000.43
2022-11-15T07:09:05.819Z,1000.45
2022-11-15T07:10:05.810Z,1000.47
2022-11-15T07:11:05.779Z,1000.44
2022-11-15T07:12:07.873Z,1000.46
2022-11-15T07:13:05.770Z,1000.45
2022-11-15T07:14:05.761Z,1000.44
2022-11-15T07:15:05.737Z,1000.44
2022-11-15T07:16:05.737Z,1000.42
2022-11-15T07:17:05.733Z,1000.47
2022-11-15T07:18:05.746Z,1000.44
2022-11-15T07:19:05.721Z,1000.46
2022-11-15T07:20:05.689Z,1000.46
2022-11-15T07:21:05.682Z,1000.45
2022-11-15T07:22:05.672Z,1000.46
2022-11-15T07:23:05.657Z,1000.46
2022-11-15T07:24:05.649Z,1000.51
2022-11-15T07:25:05.644Z,1000.50
2022-11-15T07:26:05.630Z,1000.54
2022-11-15T07:27:05.651Z,1000.57
2022-11-15T07:28:05.613Z,1000.47
2022-11-15T07:29:05.651Z,1000.52
2022-11-15T07:30:05.580Z,1000.51
2022-11-15T07:31:05.587Z,1000.50
2022-11-15T07:32:05.573Z,1000.58
2022-11-15T07:33:05.548Z,1000.60
2022-11-15T07:34:05.539Z,1000.62
2022-11-15T07:35:05.530Z,1000.63
2022-11-15T07:36:05.529Z,1000.57
2022-11-15T07:37:05.528Z,1000.58
2022-11-15T07:38:05.509Z,1000.63
2022-11-15T07:39:05.560Z,1000.60
2022-11-15T07:40:05.497Z,1000.61
2022-11-15T07:41:05.464Z,1000.61
2022-11-15T07:42:05.470Z,1000.62
2022-11-15T07:43:05.449Z,1000.66
2022-11-15T07:44:05.448Z,1000.65
2022-11-15T07:45:05.421Z,1000.66
2022-11-15T07:46:05.431Z,1000.62
2022-11-15T07:47:05.397Z,1000.70
2022-11-15T07:48:05.390Z,1000.67
2022-11-15T07:49:05.412Z,1000.69
2022-11-15T07:50:05.367Z,1000.71
2022-11-15T07:51:08.790Z,1000.72
2022-11-15T07:52:06.364Z,1000.70
2022-11-15T07:53:05.330Z,1000.72
2022-11-15T07:54:05.345Z,1000.72
2022-11-15T07:55:05.327Z,1000.74
2022-11-15T07:56:05.309Z,1000.74
2022-11-15T07:57:07.611Z,1000.77
2022-11-15T07:58:05.276Z,1000.74
2022-11-15T07:59:05.272Z,1000.74
2022-11-15T08:00:05.275Z,1000.74
2022-11-15T08:01:05.449Z,1000.75
2022-11-15T08:02:05.325Z,1000.75
2022-11-15T08:03:05.227Z,1000.76
2022-11-15T08:04:05.244Z,1000.79
2022-11-15T08:05:05.223Z,1000.80
2022-11-15T08:06:05.217Z,1000.73
2022-11-15T08:07:05.217Z,1000.75
2022-11-15T08:08:05.737Z,1000.72
2022-11-15T08:09:05.164Z,1000.77
2022-11-15T08:10:05.238Z,1000.71
2022-11-15T08:11:05.168Z,1000.67
2022-11-15T08:12:05.135Z,1000.66
2022-11-15T08:13:05.180Z,1000.72
2022-11-15T08:14:05.129Z,1000.67
2022-11-15T08:15:05.109Z,1000.70
2022-11-15T08:16:05.109Z,1000.66
2022-11-15T08:17:05.090Z,1000.71
2022-11-15T08:18:05.054Z,1000.69
2022-11-15T08:19:05.060Z,1000.71
2022-11-15T08:20:05.052Z,1000.66
2022-11-15T08:21:05.057Z,1000.67
2022-11-15T08:22:05.015Z,1000.65
2022-11-15T08:23:04.995Z,1000.63
2022-11-15T08:24:05.006Z,1000.57
2022-11-15T08:25:05.002Z,1000.55
2022-11-15T08:26:04.977Z,1000.56
2022-11-15T08:27:05.011Z,1000.56
2022-11-15T08:28:04.959Z,1000.52
2022-11-15T08:29:04.956Z,1000.51
2022-11-15T08:30:04.947Z,1000.49
2022-11-15T08:31:04.927Z,1000.48
2022-11-15T08:32:04.942Z,1000.45
2022-11-15T08:33:04.906Z,1000.49
2022-11-15T08:34:04.899Z,1000.44
2022-11-15T08:35:04.881Z,1000.41
2022-11-15T08:36:04.877Z,1000.47
2022-11-15T08:37:04.854Z,1000.46
2022-11-15T08:38:04.854Z,1000.48
2022-11-15T08:39:06.597Z,1000.45
2022-11-15T08:40:04.832Z,1000.41
2022-11-15T08:41:04.827Z,1000.47
2022-11-15T08:42:04.822Z,1000.45
2022-11-15T08:43:04.802Z,1000.44
2022-11-15T08:44:04.777Z,1000.45
2022-11-15T08:45:04.778Z,1000.46
2022-11-15T08:46:04.766Z,1000.46
2022-11-15T08:47:04.765Z,1000.40
2022-11-15T08:48:04.747Z,1000.43
2022-11-15T08:49:04.748Z,1000.42
2022-11-15T08:50:04.742Z,1000.41
2022-11-15T08:51:04.808Z,1000.43
2022-11-15T08:52:04.706Z,1000.41
2022-11-15T08:53:04.693Z,1000.48
2022-11-15T08:54:04.687Z,1000.42
2022-11-15T08:55:04.664Z,1000.41
2022-11-15T08:56:04.670Z,1000.42
2022-11-15T08:57:04.658Z,1000.40
2022-11-15T08:58:04.643Z,1000.43
2022-11-15T08:59:04.660Z,1000.43
2022-11-15T09:00:04.639Z,1000.42
2022-11-15T09:01:04.676Z,1000.45
2022-11-15T09:02:04.646Z,1000.49
2022-11-15T09:03:04.583Z,1000.47
2022-11-15T09:04:04.587Z,1000.45
2022-11-15T09:05:04.570Z,1000.47
2022-11-15T09:06:04.552Z,1000.52
2022-11-15T09:07:04.589Z,1000.57
2022-11-15T09:08:19.124Z,1000.48
2022-11-15T09:09:05.523Z,1000.49
2022-11-15T09:10:06.279Z,1000.45
2022-11-15T09:11:04.497Z,1000.50
2022-11-15T09:12:04.497Z,1000.49
2022-11-15T09:13:04.489Z,1000.48
2022-11-15T09:14:04.476Z,1000.47
2022-11-15T09:15:04.467Z,1000.51
2022-11-15T09:16:04.462Z,1000.51
2022-11-15T09:17:04.430Z,1000.49
2022-11-15T09:18:04.439Z,1000.52
2022-11-15T09:20:05.431Z,1000.54
2022-11-15T09:21:04.388Z,1000.47
2022-11-15T09:22:04.378Z,1000.47
2022-11-15T09:23:04.398Z,1000.51
2022-11-15T09:24:04.366Z,1000.43
2022-11-15T09:25:07.335Z,1000.42
2022-11-15T09:26:05.356Z,1000.38
2022-11-15T09:27:04.331Z,1000.41
2022-11-15T09:28:04.326Z,1000.37
2022-11-15T09:29:04.323Z,1000.43
2022-11-15T09:30:05.149Z,1000.45
2022-11-15T09:31:04.306Z,1000.38
2022-11-15T09:32:04.280Z,1000.37
2022-11-15T09:33:04.292Z,1000.44
2022-11-15T09:34:04.270Z,1000.43
2022-11-15T09:35:04.232Z,1000.39
2022-11-15T09:36:04.229Z,1000.47
2022-11-15T09:37:04.216Z,1000.46
2022-11-15T09:38:04.201Z,1000.40
2022-11-15T09:39:04.199Z,1000.47
2022-11-15T09:40:04.200Z,1000.38
2022-11-15T09:41:04.391Z,1000.41
2022-11-15T09:42:04.246Z,1000.49
2022-11-15T09:43:04.187Z,1000.47
2022-11-15T09:44:04.152Z,1000.54
2022-11-15T09:45:04.154Z,1000.39
2022-11-15T09:46:04.157Z,1000.47
2022-11-15T09:47:04.106Z,1000.45
2022-11-15T09:48:04.098Z,1000.38
2022-11-15T09:49:04.078Z,1000.42
2022-11-15T09:50:05.073Z,1000.42
2022-11-15T09:51:04.070Z,1000.44
2022-11-15T09:52:04.061Z,1000.49
2022-11-15T09:53:04.073Z,1000.46
2022-11-15T09:54:50.964Z,1000.43
2022-11-15T09:55:05.029Z,1000.40
2022-11-15T09:56:04.022Z,1000.42
2022-11-15T09:57:04.002Z,1000.43
2022-11-15T09:58:03.996Z,1000.42
2022-11-15T09:59:03.990Z,1000.41
2022-11-15T10:00:30.766Z,1000.44
2022-11-15T10:01:04.972Z,1000.43
2022-11-15T10:02:03.984Z,1000.51
2022-11-15T10:03:03.973Z,1000.40
2022-11-15T10:04:07.843Z,1000.37
2022-11-15T10:05:04.923Z,1000.40
2022-11-15T10:06:03.942Z,1000.38
2022-11-15T10:07:03.964Z,1000.40
2022-11-15T10:08:03.895Z,1000.25
2022-11-15T10:09:03.896Z,1000.33
2022-11-15T10:10:03.858Z,1000.28
2022-11-15T10:12:05.830Z,1000.29
2022-11-15T10:13:03.835Z,1000.20
2022-11-15T10:14:03.821Z,1000.20
2022-11-15T10:15:03.811Z,1000.37
2022-11-15T10:16:03.793Z,1000.28
2022-11-15T10:17:03.785Z,1000.30
2022-11-15T10:18:03.776Z,1000.18
2022-11-15T10:19:03.767Z,1000.24
2022-11-15T10:20:05.941Z,1000.23
2022-11-15T10:21:03.764Z,1000.08
2022-11-15T10:22:03.730Z,1000.10
2022-11-15T10:23:03.746Z,1000.14
2022-11-15T10:24:03.743Z,1000.08
2022-11-15T10:25:03.703Z,1000.00
2022-11-15T10:26:06.845Z,1000.11
2022-11-15T10:27:03.690Z,1000.00
2022-11-15T10:28:03.671Z,999.92
2022-11-15T10:29:03.662Z,1000.04
2022-11-15T10:30:03.650Z,999.93
2022-11-15T10:31:03.646Z,999.88
2022-11-15T10:32:03.626Z,999.88
2022-11-15T10:33:03.624Z,999.92
2022-11-15T10:34:03.598Z,999.87
2022-11-15T10:35:03.619Z,999.90
2022-11-15T10:36:03.580Z,999.87
2022-11-15T10:37:03.577Z,999.86
2022-11-15T10:38:03.569Z,999.95
2022-11-15T10:39:03.556Z,999.94
2022-11-15T10:40:03.540Z,999.89
2022-11-15T10:41:03.521Z,999.77
2022-11-15T10:42:09.574Z,999.78
2022-11-15T10:43:05.493Z,999.79
2022-11-15T10:44:03.490Z,999.70
2022-11-15T10:45:03.502Z,999.81
2022-11-15T10:46:24.707Z,999.71
2022-11-15T10:47:04.476Z,999.67
2022-11-15T10:48:03.450Z,999.71
2022-11-15T10:49:03.461Z,999.67
2022-11-15T10:50:03.430Z,999.51
2022-11-15T10:51:03.422Z,999.57
2022-11-15T10:52:03.413Z,999.54
2022-11-15T10:53:03.402Z,999.55
2022-11-15T10:54:05.662Z,999.54
2022-11-15T10:55:04.383Z,999.51
2022-11-15T10:56:03.359Z,999.58
2022-11-15T10:57:03.372Z,999.47
2022-11-15T10:58:03.360Z,999.49
2022-11-15T10:59:03.330Z,999.47
2022-11-15T11:00:03.322Z,999.43
2022-11-15T11:01:03.371Z,999.62
2022-11-15T11:02:03.313Z,999.47
2022-11-15T11:03:03.303Z,999.47
2022-11-15T11:04:03.303Z,999.48
2022-11-15T11:05:03.276Z,999.47
2022-11-15T11:06:03.243Z,999.42
2022-11-15T11:07:03.311Z,999.45
2022-11-15T11:08:03.256Z,999.38
2022-11-15T11:09:03.257Z,999.43
2022-11-15T11:10:03.632Z,999.40
2022-11-15T11:11:03.978Z,999.35
2022-11-15T11:12:03.191Z,999.35
2022-11-15T11:13:03.216Z,999.36
2022-11-15T11:14:03.400Z,999.25
2022-11-15T11:15:03.165Z,999.25
2022-11-15T11:16:03.150Z,999.27
2022-11-15T11:17:03.135Z,999.21
2022-11-15T11:18:03.148Z,999.32
2022-11-15T11:19:03.117Z,999.25
2022-11-15T11:20:03.114Z,999.32
2022-11-15T11:21:03.125Z,999.20
2022-11-15T11:22:03.111Z,999.16
2022-11-15T11:23:03.087Z,999.27
2022-11-15T11:24:03.067Z,999.22
2022-11-15T11:25:03.064Z,999.30
2022-11-15T11:26:03.402Z,999.22
2022-11-15T11:27:03.047Z,999.24
2022-11-15T11:28:03.042Z,999.19
2022-11-15T11:29:03.035Z,999.25
2022-11-15T11:30:03.011Z,999.19
2022-11-15T11:31:03.011Z,999.20
2022-11-15T11:32:02.991Z,999.25
2022-11-15T11:33:02.988Z,999.25
2022-11-15T11:34:02.958Z,999.19
2022-11-15T11:35:02.965Z,999.16
2022-11-15T11:36:02.943Z,999.14
2022-11-15T11:37:02.953Z,999.16
2022-11-15T11:38:02.950Z,999.21
2022-11-15T11:39:02.916Z,999.15
2022-11-15T11:40:07.486Z,999.13
2022-11-15T11:41:03.899Z,999.22
2022-11-15T11:42:02.873Z,999.27
2022-11-15T11:43:02.868Z,999.13
2022-11-15T11:44:02.876Z,999.10
2022-11-15T11:45:02.882Z,999.07
2022-11-15T11:46:02.832Z,998.99
2022-11-15T11:47:02.846Z,998.94
2022-11-15T11:48:02.829Z,998.95
2022-11-15T11:49:02.809Z,998.93
2022-11-15T11:50:03.744Z,998.75
2022-11-15T11:51:02.783Z,998.92
2022-11-15T11:52:02.772Z,998.84
2022-11-15T11:53:04.386Z,998.86
2022-11-15T11:54:02.775Z,998.82
2022-11-15T11:55:02.736Z,998.76
2022-11-15T11:56:02.728Z,998.67
2022-11-15T11:57:02.734Z,998.74
2022-11-15T11:58:02.737Z,998.79
2022-11-15T11:59:02.714Z,998.78
2022-11-15T12:00:02.687Z,998.76
2022-11-15T12:01:02.684Z,998.73
2022-11-15T12:02:02.787Z,998.72
2022-11-15T12:03:02.803Z,998.64
2022-11-15T12:04:02.656Z,998.60
2022-11-15T12:05:02.627Z,998.56
2022-11-15T12:06:02.729Z,998.70
2022-11-15T12:07:02.685Z,998.69
2022-11-15T12:08:04.283Z,998.69
2022-11-15T12:09:02.607Z,998.66
2022-11-15T12:10:02.595Z,998.61
2022-11-15T12:11:02.559Z,998.61
2022-11-15T12:12:02.555Z,998.64
2022-11-15T12:13:02.559Z,998.63
2022-11-15T12:14:02.564Z,998.68
2022-11-15T12:15:02.722Z,998.60
2022-11-15T12:16:07.459Z,998.59
2022-11-15T12:17:03.534Z,998.63
2022-11-15T12:18:02.514Z,998.61
2022-11-15T12:19:02.488Z,998.57
2022-11-15T12:20:02.470Z,998.57
2022-11-15T12:21:02.466Z,998.59
2022-11-15T12:22:02.447Z,998.59
2022-11-15T12:23:02.439Z,998.56
2022-11-15T12:24:02.439Z,998.50
2022-11-15T12:25:02.457Z,998.47
2022-11-15T12:26:02.422Z,998.49
2022-11-15T12:27:02.401Z,998.41
2022-11-15T12:28:02.389Z,998.48
2022-11-15T12:29:07.857Z,998.49
2022-11-15T12:30:03.374Z,998.40
2022-11-15T12:31:02.359Z,998.39
2022-11-15T12:32:02.373Z,998.40
2022-11-15T12:33:02.355Z,998.38
2022-11-15T12:34:07.107Z,998.33
2022-11-15T12:35:03.336Z,998.46
2022-11-15T12:36:02.318Z,998.36
2022-11-15T12:37:02.295Z,998.37
2022-11-15T12:38:02.302Z,998.35
2022-11-15T12:39:02.291Z,998.36
2022-11-15T12:40:03.922Z,998.36
2022-11-15T12:41:02.257Z,998.33
2022-11-15T12:42:02.249Z,998.39
2022-11-15T12:43:02.231Z,998.34
2022-11-15T12:44:02.227Z,998.29
2022-11-15T12:45:02.255Z,998.31
2022-11-15T12:46:02.264Z,998.29
2022-11-15T12:47:02.190Z,998.28
2022-11-15T12:48:02.175Z,998.27
2022-11-15T12:49:02.173Z,998.34
2022-11-15T12:50:02.159Z,998.42
2022-11-15T12:51:02.155Z,998.29
2022-11-15T12:52:02.150Z,998.31
2022-11-15T12:53:02.131Z,998.27
2022-11-15T12:54:02.143Z,998.33
2022-11-15T12:55:02.103Z,998.29
2022-11-15T12:56:02.094Z,998.29
2022-11-15T12:57:02.101Z,998.28
2022-11-15T12:58:02.075Z,998.29
2022-11-15T12:59:02.065Z,998.26
2022-11-15T13:00:02.061Z,998.31
2022-11-15T13:01:02.107Z,998.31
2022-11-15T13:02:02.078Z,998.27
2022-11-15T13:03:02.034Z,998.19
2022-11-15T13:04:02.048Z,998.14
2022-11-15T13:05:02.005Z,998.16
2022-11-15T13:06:02.015Z,998.08
2022-11-15T13:07:02.021Z,998.12
2022-11-15T13:08:01.977Z,998.04
2022-11-15T13:09:01.964Z,998.05
2022-11-15T13:10:01.956Z,998.09
2022-11-15T13:11:02.889Z,998.07
2022-11-15T13:12:01.935Z,998.01
2022-11-15T13:13:01.920Z,998.03
2022-11-15T13:14:01.924Z,997.94
2022-11-15T13:15:02.480Z,998.02
2022-11-15T13:16:01.898Z,998.01
2022-11-15T13:17:02.074Z,998.01
2022-11-15T13:18:01.874Z,997.92
2022-11-15T13:19:01.886Z,997.94
2022-11-15T13:20:01.854Z,997.96
2022-11-15T13:21:02.963Z,997.92
2022-11-15T13:22:01.836Z,997.97
2022-11-15T13:23:01.829Z,997.90
2022-11-15T13:24:01.827Z,997.90
2022-11-15T13:25:01.808Z,997.84
2022-11-15T13:26:01.811Z,997.85
2022-11-15T13:27:01.775Z,997.79
2022-11-15T13:28:07.606Z,997.81
2022-11-15T13:29:02.771Z,997.79
2022-11-15T13:30:01.763Z,997.84
2022-11-15T13:31:01.750Z,997.86
2022-11-15T13:32:01.724Z,997.84
2022-11-15T13:33:01.721Z,997.87
2022-11-15T13:34:01.743Z,997.86
2022-11-15T13:35:01.708Z,997.85
2022-11-15T13:36:01.698Z,997.80
2022-11-15T13:37:01.687Z,997.78
2022-11-15T13:38:01.668Z,997.78
2022-11-15T13:39:01.752Z,997.79
2022-11-15T13:40:01.638Z,997.79
2022-11-15T13:41:01.639Z,997.79
2022-11-15T13:42:01.641Z,997.79
2022-11-15T13:43:01.618Z,997.67
2022-11-15T13:44:01.600Z,997.70
2022-11-15T13:45:01.605Z,997.72
2022-11-15T13:46:01.585Z,997.72
2022-11-15T13:47:01.578Z,997.80
2022-11-15T13:48:01.757Z,997.76
2022-11-15T13:49:01.707Z,997.73
2022-11-15T13:50:01.681Z,997.70
2022-11-15T13:51:01.541Z,997.68
2022-11-15T13:52:01.521Z,997.64
2022-11-15T13:53:01.526Z,997.71
2022-11-15T13:54:01.499Z,997.63
2022-11-15T13:55:01.548Z,997.61
2022-11-15T13:56:01.486Z,997.59
2022-11-15T13:57:01.478Z,997.60
2022-11-15T13:58:01.473Z,997.61
2022-11-15T13:59:01.468Z,997.56
2022-11-15T14:00:01.438Z,997.54
2022-11-15T14:01:01.426Z,997.52
2022-11-15T14:02:01.458Z,997.51
2022-11-15T14:03:01.400Z,997.49
2022-11-15T14:04:01.414Z,997.54
2022-11-15T14:05:01.386Z,997.56
2022-11-15T14:06:01.397Z,997.53
2022-11-15T14:07:01.398Z,997.49
2022-11-15T14:08:01.354Z,997.43
2022-11-15T14:09:01.368Z,997.45
2022-11-15T14:10:01.331Z,997.43
2022-11-15T14:11:01.313Z,997.46
2022-11-15T14:12:01.429Z,997.43
2022-11-15T14:13:01.305Z,997.42
2022-11-15T14:14:01.292Z,997.46
2022-11-15T14:15:01.302Z,997.51
2022-11-15T14:16:01.268Z,997.52
2022-11-15T14:17:01.303Z,997.51
2022-11-15T14:18:01.270Z,997.51
2022-11-15T14:19:01.423Z,997.53
2022-11-15T14:20:01.233Z,997.46
2022-11-15T14:21:01.224Z,997.45
2022-11-15T14:22:01.199Z,997.49
2022-11-15T14:23:01.196Z,997.45
2022-11-15T14:24:01.198Z,997.43
2022-11-15T14:25:01.188Z,997.42
2022-11-15T14:26:01.183Z,997.42
2022-11-15T14:27:01.147Z,997.37
2022-11-15T14:28:01.151Z,997.30
2022-11-15T14:29:01.127Z,997.33
2022-11-15T14:30:01.142Z,997.29
2022-11-15T14:31:01.125Z,997.40
2022-11-15T14:32:01.226Z,997.34
2022-11-15T14:33:01.098Z,997.31
2022-11-15T14:34:01.088Z,997.30